sensor_id;sensor_type;location;lat;lon;timestamp;P1;durP1;ratioP1;P2;durP2;ratioP2
48285;SDS011;34102;47.716;10.296;2022-07-09T00:00:51;3.92;;;2.30;;
48285;SDS011;34102;47.716;10.296;2022-07-09T00:03:17;5.95;;;2.10;;
48285;SDS011;34102;47.716;10.296;2022-07-09T00:05:42;3.30;;;2.10;;
48285;SDS011;34102;47.716;10.296;2022-07-09T00:08:07;4.40;;;2.40;;
48285;SDS011;34102;47.716;10.296;2022-07-09T00:10:33;4.30;;;2.50;;
48285;SDS011;34102;47.716;10.296;2022-07-09T00:12:58;6.57;;;2.33;;
48285;SDS011;34102;47.716;10.296;2022-07-09T00:15:23;4.05;;;2.38;;
48285;SDS011;34102;47.716;10.296;2022-07-09T00:17:50;5.40;;;2.15;;
48285;SDS011;34102;47.716;10.296;2022-07-09T00:20:15;3.55;;;2.08;;
48285;SDS011;34102;47.716;10.296;2022-07-09T00:22:40;5.53;;;2.63;;
48285;SDS011;34102;47.716;10.296;2022-07-09T00:25:06;4.65;;;2.40;;
48285;SDS011;34102;47.716;10.296;2022-07-09T00:27:31;5.43;;;2.72;;
48285;SDS011;34102;47.716;10.296;2022-07-09T00:29:56;10.20;;;3.43;;
48285;SDS011;34102;47.716;10.296;2022-07-09T00:32:21;6.13;;;2.87;;
48285;SDS011;34102;47.716;10.296;2022-07-09T00:34:47;6.00;;;2.70;;
48285;SDS011;34102;47.716;10.296;2022-07-09T00:37:12;6.53;;;2.63;;
48285;SDS011;34102;47.716;10.296;2022-07-09T00:39:37;4.22;;;2.38;;
48285;SDS011;34102;47.716;10.296;2022-07-09T00:42:07;5.43;;;2.90;;
48285;SDS011;34102;47.716;10.296;2022-07-09T00:44:33;6.63;;;3.25;;
48285;SDS011;34102;47.716;10.296;2022-07-09T00:46:58;3.95;;;2.58;;
48285;SDS011;34102;47.716;10.296;2022-07-09T00:49:28;6.47;;;2.08;;
48285;SDS011;34102;47.716;10.296;2022-07-09T00:51:53;5.30;;;2.70;;
48285;SDS011;34102;47.716;10.296;2022-07-09T00:54:18;5.05;;;2.08;;
48285;SDS011;34102;47.716;10.296;2022-07-09T00:56:44;5.90;;;2.80;;
48285;SDS011;34102;47.716;10.296;2022-07-09T00:59:13;6.25;;;2.65;;
48285;SDS011;34102;47.716;10.296;2022-07-09T01:01:41;4.28;;;2.30;;
48285;SDS011;34102;47.716;10.296;2022-07-09T01:04:06;4.80;;;2.80;;
48285;SDS011;34102;47.716;10.296;2022-07-09T01:06:34;3.80;;;2.83;;
48285;SDS011;34102;47.716;10.296;2022-07-09T01:09:02;4.75;;;2.75;;
48285;SDS011;34102;47.716;10.296;2022-07-09T01:11:28;4.35;;;2.80;;
48285;SDS011;34102;47.716;10.296;2022-07-09T01:13:53;4.93;;;2.88;;
48285;SDS011;34102;47.716;10.296;2022-07-09T01:16:18;5.28;;;2.72;;
48285;SDS011;34102;47.716;10.296;2022-07-09T01:18:48;5.40;;;1.75;;
48285;SDS011;34102;47.716;10.296;2022-07-09T01:21:13;4.95;;;3.28;;
48285;SDS011;34102;47.716;10.296;2022-07-09T01:23:39;5.22;;;2.45;;
48285;SDS011;34102;47.716;10.296;2022-07-09T01:26:04;3.85;;;2.30;;
48285;SDS011;34102;47.716;10.296;2022-07-09T01:28:30;5.43;;;2.30;;
48285;SDS011;34102;47.716;10.296;2022-07-09T01:30:55;5.47;;;2.60;;
48285;SDS011;34102;47.716;10.296;2022-07-09T01:33:23;5.13;;;2.38;;
48285;SDS011;34102;47.716;10.296;2022-07-09T01:35:49;5.05;;;2.45;;
48285;SDS011;34102;47.716;10.296;2022-07-09T01:38:14;6.05;;;2.35;;
48285;SDS011;34102;47.716;10.296;2022-07-09T01:40:40;3.67;;;2.65;;
48285;SDS011;34102;47.716;10.296;2022-07-09T01:43:05;4.78;;;2.28;;
48285;SDS011;34102;47.716;10.296;2022-07-09T01:45:31;4.05;;;2.30;;
48285;SDS011;34102;47.716;10.296;2022-07-09T01:47:56;8.77;;;2.90;;
48285;SDS011;34102;47.716;10.296;2022-07-09T01:50:22;6.07;;;2.90;;
48285;SDS011;34102;47.716;10.296;2022-07-09T01:52:47;4.28;;;2.67;;
48285;SDS011;34102;47.716;10.296;2022-07-09T01:55:12;5.35;;;2.72;;
48285;SDS011;34102;47.716;10.296;2022-07-09T01:57:38;4.80;;;2.55;;
48285;SDS011;34102;47.716;10.296;2022-07-09T02:00:03;5.63;;;2.70;;
48285;SDS011;34102;47.716;10.296;2022-07-09T02:02:29;4.97;;;3.03;;
48285;SDS011;34102;47.716;10.296;2022-07-09T02:04:54;6.22;;;2.92;;
48285;SDS011;34102;47.716;10.296;2022-07-09T02:07:22;5.03;;;2.42;;
48285;SDS011;34102;47.716;10.296;2022-07-09T02:09:47;4.78;;;2.60;;
48285;SDS011;34102;47.716;10.296;2022-07-09T02:12:14;5.30;;;3.63;;
48285;SDS011;34102;47.716;10.296;2022-07-09T02:14:42;5.63;;;2.83;;
48285;SDS011;34102;47.716;10.296;2022-07-09T02:17:07;4.95;;;2.63;;
48285;SDS011;34102;47.716;10.296;2022-07-09T02:19:32;3.65;;;2.80;;
48285;SDS011;34102;47.716;10.296;2022-07-09T02:21:57;2.90;;;2.50;;
48285;SDS011;34102;47.716;10.296;2022-07-09T02:24:23;4.55;;;3.08;;
48285;SDS011;34102;47.716;10.296;2022-07-09T02:26:48;4.10;;;2.70;;
48285;SDS011;34102;47.716;10.296;2022-07-09T02:29:14;6.55;;;3.17;;
48285;SDS011;34102;47.716;10.296;2022-07-09T02:31:39;3.35;;;2.67;;
48285;SDS011;34102;47.716;10.296;2022-07-09T02:34:04;4.25;;;2.45;;
48285;SDS011;34102;47.716;10.296;2022-07-09T02:36:30;4.55;;;2.55;;
48285;SDS011;34102;47.716;10.296;2022-07-09T02:38:55;5.20;;;3.03;;
48285;SDS011;34102;47.716;10.296;2022-07-09T02:41:20;4.45;;;2.53;;
48285;SDS011;34102;47.716;10.296;2022-07-09T02:43:45;6.22;;;2.95;;
48285;SDS011;34102;47.716;10.296;2022-07-09T02:46:11;5.05;;;3.28;;
48285;SDS011;34102;47.716;10.296;2022-07-09T02:48:36;5.22;;;3.25;;
48285;SDS011;34102;47.716;10.296;2022-07-09T02:51:02;4.45;;;3.28;;
48285;SDS011;34102;47.716;10.296;2022-07-09T02:53:28;5.22;;;3.33;;
48285;SDS011;34102;47.716;10.296;2022-07-09T02:55:54;6.20;;;2.97;;
48285;SDS011;34102;47.716;10.296;2022-07-09T02:58:19;4.47;;;2.85;;
48285;SDS011;34102;47.716;10.296;2022-07-09T03:00:44;5.13;;;2.70;;
48285;SDS011;34102;47.716;10.296;2022-07-09T03:03:09;3.83;;;2.60;;
48285;SDS011;34102;47.716;10.296;2022-07-09T03:05:35;4.43;;;2.93;;
48285;SDS011;34102;47.716;10.296;2022-07-09T03:08:00;4.97;;;2.78;;
48285;SDS011;34102;47.716;10.296;2022-07-09T03:10:25;5.50;;;2.75;;
48285;SDS011;34102;47.716;10.296;2022-07-09T03:12:51;4.43;;;2.83;;
48285;SDS011;34102;47.716;10.296;2022-07-09T03:15:16;5.13;;;3.10;;
48285;SDS011;34102;47.716;10.296;2022-07-09T03:17:46;5.00;;;3.13;;
48285;SDS011;34102;47.716;10.296;2022-07-09T03:20:11;5.90;;;2.95;;
48285;SDS011;34102;47.716;10.296;2022-07-09T03:22:37;4.47;;;3.60;;
48285;SDS011;34102;47.716;10.296;2022-07-09T03:25:02;3.72;;;2.80;;
48285;SDS011;34102;47.716;10.296;2022-07-09T03:27:28;7.63;;;3.10;;
48285;SDS011;34102;47.716;10.296;2022-07-09T03:29:53;5.40;;;3.08;;
48285;SDS011;34102;47.716;10.296;2022-07-09T03:32:18;4.57;;;2.88;;
48285;SDS011;34102;47.716;10.296;2022-07-09T03:34:43;3.25;;;2.67;;
48285;SDS011;34102;47.716;10.296;2022-07-09T03:37:09;4.35;;;2.53;;
48285;SDS011;34102;47.716;10.296;2022-07-09T03:39:34;3.25;;;2.40;;
48285;SDS011;34102;47.716;10.296;2022-07-09T03:42:00;5.18;;;2.50;;
48285;SDS011;34102;47.716;10.296;2022-07-09T03:44:26;4.80;;;2.25;;
48285;SDS011;34102;47.716;10.296;2022-07-09T03:46:51;8.52;;;2.58;;
48285;SDS011;34102;47.716;10.296;2022-07-09T03:49:16;4.38;;;2.22;;
48285;SDS011;34102;47.716;10.296;2022-07-09T03:51:42;5.05;;;2.50;;
48285;SDS011;34102;47.716;10.296;2022-07-09T03:54:09;5.18;;;2.17;;
48285;SDS011;34102;47.716;10.296;2022-07-09T03:56:34;3.60;;;1.73;;
48285;SDS011;34102;47.716;10.296;2022-07-09T03:59:00;3.22;;;2.20;;
48285;SDS011;34102;47.716;10.296;2022-07-09T04:01:25;3.05;;;2.10;;
48285;SDS011;34102;47.716;10.296;2022-07-09T04:03:50;3.55;;;1.85;;
48285;SDS011;34102;47.716;10.296;2022-07-09T04:06:15;7.95;;;2.03;;
48285;SDS011;34102;47.716;10.296;2022-07-09T04:08:41;3.60;;;1.92;;
48285;SDS011;34102;47.716;10.296;2022-07-09T04:11:06;6.00;;;2.08;;
48285;SDS011;34102;47.716;10.296;2022-07-09T04:13:32;5.80;;;2.00;;
48285;SDS011;34102;47.716;10.296;2022-07-09T04:15:57;3.10;;;2.05;;
48285;SDS011;34102;47.716;10.296;2022-07-09T04:18:22;4.03;;;2.35;;
48285;SDS011;34102;47.716;10.296;2022-07-09T04:20:47;4.70;;;2.30;;
48285;SDS011;34102;47.716;10.296;2022-07-09T04:23:13;3.50;;;2.30;;
48285;SDS011;34102;47.716;10.296;2022-07-09T04:25:38;4.22;;;2.05;;
48285;SDS011;34102;47.716;10.296;2022-07-09T04:28:04;5.63;;;2.63;;
48285;SDS011;34102;47.716;10.296;2022-07-09T04:30:30;3.83;;;2.45;;
48285;SDS011;34102;47.716;10.296;2022-07-09T04:32:55;4.82;;;2.80;;
48285;SDS011;34102;47.716;10.296;2022-07-09T04:35:21;3.72;;;2.10;;
48285;SDS011;34102;47.716;10.296;2022-07-09T04:37:46;4.00;;;3.00;;
48285;SDS011;34102;47.716;10.296;2022-07-09T04:40:11;3.13;;;2.05;;
48285;SDS011;34102;47.716;10.296;2022-07-09T04:42:37;4.57;;;2.35;;
48285;SDS011;34102;47.716;10.296;2022-07-09T04:45:02;6.40;;;2.40;;
48285;SDS011;34102;47.716;10.296;2022-07-09T04:47:30;4.63;;;2.47;;
48285;SDS011;34102;47.716;10.296;2022-07-09T04:49:55;4.97;;;2.47;;
48285;SDS011;34102;47.716;10.296;2022-07-09T04:52:20;4.47;;;2.40;;
48285;SDS011;34102;47.716;10.296;2022-07-09T04:54:51;4.53;;;2.47;;
48285;SDS011;34102;47.716;10.296;2022-07-09T04:57:17;2.45;;;1.95;;
48285;SDS011;34102;47.716;10.296;2022-07-09T04:59:42;7.22;;;2.50;;
48285;SDS011;34102;47.716;10.296;2022-07-09T05:02:07;3.47;;;1.90;;
48285;SDS011;34102;47.716;10.296;2022-07-09T05:04:34;3.88;;;2.28;;
48285;SDS011;34102;47.716;10.296;2022-07-09T05:06:59;2.65;;;2.08;;
48285;SDS011;34102;47.716;10.296;2022-07-09T05:09:25;5.65;;;2.03;;
48285;SDS011;34102;47.716;10.296;2022-07-09T05:11:50;3.92;;;2.28;;
48285;SDS011;34102;47.716;10.296;2022-07-09T05:14:15;3.58;;;2.20;;
48285;SDS011;34102;47.716;10.296;2022-07-09T05:16:41;2.28;;;2.08;;
48285;SDS011;34102;47.716;10.296;2022-07-09T05:19:10;2.53;;;2.10;;
48285;SDS011;34102;47.716;10.296;2022-07-09T05:21:35;3.63;;;2.08;;
48285;SDS011;34102;47.716;10.296;2022-07-09T05:24:01;6.10;;;2.53;;
48285;SDS011;34102;47.716;10.296;2022-07-09T05:26:27;3.58;;;2.42;;
48285;SDS011;34102;47.716;10.296;2022-07-09T05:28:54;3.50;;;2.33;;
48285;SDS011;34102;47.716;10.296;2022-07-09T05:31:20;4.03;;;1.95;;
48285;SDS011;34102;47.716;10.296;2022-07-09T05:33:45;3.55;;;2.50;;
48285;SDS011;34102;47.716;10.296;2022-07-09T05:36:12;2.63;;;2.25;;
48285;SDS011;34102;47.716;10.296;2022-07-09T05:38:37;4.10;;;2.03;;
48285;SDS011;34102;47.716;10.296;2022-07-09T05:41:03;2.90;;;2.30;;
48285;SDS011;34102;47.716;10.296;2022-07-09T05:43:28;5.43;;;2.15;;
48285;SDS011;34102;47.716;10.296;2022-07-09T05:45:54;3.63;;;2.07;;
48285;SDS011;34102;47.716;10.296;2022-07-09T05:48:19;3.87;;;1.83;;
48285;SDS011;34102;47.716;10.296;2022-07-09T05:50:44;4.65;;;1.98;;
48285;SDS011;34102;47.716;10.296;2022-07-09T05:53:11;2.45;;;1.83;;
48285;SDS011;34102;47.716;10.296;2022-07-09T05:55:36;2.80;;;1.40;;
48285;SDS011;34102;47.716;10.296;2022-07-09T05:58:01;4.38;;;2.20;;
48285;SDS011;34102;47.716;10.296;2022-07-09T06:00:27;5.53;;;1.75;;
48285;SDS011;34102;47.716;10.296;2022-07-09T06:02:52;2.92;;;1.88;;
48285;SDS011;34102;47.716;10.296;2022-07-09T06:05:17;3.67;;;1.85;;
48285;SDS011;34102;47.716;10.296;2022-07-09T06:07:45;3.83;;;1.77;;
48285;SDS011;34102;47.716;10.296;2022-07-09T06:10:10;6.47;;;2.00;;
48285;SDS011;34102;47.716;10.296;2022-07-09T06:12:37;4.20;;;2.00;;
48285;SDS011;34102;47.716;10.296;2022-07-09T06:15:02;5.03;;;1.92;;
48285;SDS011;34102;47.716;10.296;2022-07-09T06:17:28;1.90;;;1.60;;
48285;SDS011;34102;47.716;10.296;2022-07-09T06:19:53;4.13;;;1.73;;
48285;SDS011;34102;47.716;10.296;2022-07-09T06:22:18;2.17;;;1.43;;
48285;SDS011;34102;47.716;10.296;2022-07-09T06:24:44;3.42;;;1.52;;
48285;SDS011;34102;47.716;10.296;2022-07-09T06:27:09;4.80;;;1.75;;
48285;SDS011;34102;47.716;10.296;2022-07-09T06:29:35;3.42;;;2.00;;
48285;SDS011;34102;47.716;10.296;2022-07-09T06:32:01;3.03;;;1.70;;
48285;SDS011;34102;47.716;10.296;2022-07-09T06:34:26;2.57;;;1.43;;
48285;SDS011;34102;47.716;10.296;2022-07-09T06:36:51;2.83;;;1.70;;
48285;SDS011;34102;47.716;10.296;2022-07-09T06:39:17;3.63;;;1.70;;
48285;SDS011;34102;47.716;10.296;2022-07-09T06:42:05;3.10;;;1.70;;
48285;SDS011;34102;47.716;10.296;2022-07-09T06:44:30;4.65;;;1.80;;
48285;SDS011;34102;47.716;10.296;2022-07-09T06:46:56;3.13;;;1.43;;
48285;SDS011;34102;47.716;10.296;2022-07-09T06:49:21;2.97;;;1.20;;
48285;SDS011;34102;47.716;10.296;2022-07-09T06:51:46;5.83;;;1.57;;
48285;SDS011;34102;47.716;10.296;2022-07-09T06:54:11;4.23;;;1.60;;
48285;SDS011;34102;47.716;10.296;2022-07-09T06:56:37;2.45;;;1.27;;
48285;SDS011;34102;47.716;10.296;2022-07-09T06:59:02;4.50;;;1.40;;
48285;SDS011;34102;47.716;10.296;2022-07-09T07:01:28;6.72;;;1.90;;
48285;SDS011;34102;47.716;10.296;2022-07-09T07:03:53;3.60;;;1.20;;
48285;SDS011;34102;47.716;10.296;2022-07-09T07:06:18;5.47;;;1.40;;
48285;SDS011;34102;47.716;10.296;2022-07-09T07:08:43;4.83;;;1.77;;
48285;SDS011;34102;47.716;10.296;2022-07-09T07:11:09;3.07;;;1.23;;
48285;SDS011;34102;47.716;10.296;2022-07-09T07:13:34;2.63;;;1.08;;
48285;SDS011;34102;47.716;10.296;2022-07-09T07:15:59;3.10;;;1.45;;
48285;SDS011;34102;47.716;10.296;2022-07-09T07:18:25;3.43;;;1.30;;
48285;SDS011;34102;47.716;10.296;2022-07-09T07:20:50;2.80;;;1.30;;
48285;SDS011;34102;47.716;10.296;2022-07-09T07:23:15;2.97;;;1.47;;
48285;SDS011;34102;47.716;10.296;2022-07-09T07:25:40;6.03;;;1.65;;
48285;SDS011;34102;47.716;10.296;2022-07-09T07:28:08;7.10;;;2.22;;
48285;SDS011;34102;47.716;10.296;2022-07-09T07:30:34;4.10;;;1.40;;
48285;SDS011;34102;47.716;10.296;2022-07-09T07:33:00;6.85;;;3.17;;
48285;SDS011;34102;47.716;10.296;2022-07-09T07:35:27;6.22;;;1.92;;
48285;SDS011;34102;47.716;10.296;2022-07-09T07:37:52;4.53;;;1.57;;
48285;SDS011;34102;47.716;10.296;2022-07-09T07:40:20;3.97;;;1.30;;
48285;SDS011;34102;47.716;10.296;2022-07-09T07:42:46;4.07;;;0.90;;
48285;SDS011;34102;47.716;10.296;2022-07-09T07:45:22;4.97;;;1.27;;
48285;SDS011;34102;47.716;10.296;2022-07-09T07:47:56;2.80;;;1.02;;
48285;SDS011;34102;47.716;10.296;2022-07-09T07:50:25;4.45;;;1.00;;
48285;SDS011;34102;47.716;10.296;2022-07-09T07:52:50;2.27;;;1.00;;
48285;SDS011;34102;47.716;10.296;2022-07-09T07:55:15;2.90;;;1.30;;
48285;SDS011;34102;47.716;10.296;2022-07-09T07:57:41;2.00;;;0.80;;
48285;SDS011;34102;47.716;10.296;2022-07-09T08:00:06;4.30;;;1.27;;
48285;SDS011;34102;47.716;10.296;2022-07-09T08:02:33;2.88;;;0.95;;
48285;SDS011;34102;47.716;10.296;2022-07-09T08:04:59;2.67;;;0.93;;
48285;SDS011;34102;47.716;10.296;2022-07-09T08:07:24;3.50;;;1.00;;
48285;SDS011;34102;47.716;10.296;2022-07-09T08:09:50;3.70;;;1.17;;
48285;SDS011;34102;47.716;10.296;2022-07-09T08:12:15;4.22;;;1.13;;
48285;SDS011;34102;47.716;10.296;2022-07-09T08:14:40;3.53;;;1.00;;
48285;SDS011;34102;47.716;10.296;2022-07-09T08:17:05;4.63;;;1.10;;
48285;SDS011;34102;47.716;10.296;2022-07-09T08:19:32;3.10;;;0.90;;
48285;SDS011;34102;47.716;10.296;2022-07-09T08:21:57;5.03;;;1.07;;
48285;SDS011;34102;47.716;10.296;2022-07-09T08:24:23;3.72;;;0.75;;
48285;SDS011;34102;47.716;10.296;2022-07-09T08:26:48;3.00;;;1.05;;
48285;SDS011;34102;47.716;10.296;2022-07-09T08:29:13;3.30;;;1.10;;
48285;SDS011;34102;47.716;10.296;2022-07-09T08:31:39;4.13;;;0.98;;
48285;SDS011;34102;47.716;10.296;2022-07-09T08:34:04;4.97;;;1.05;;
48285;SDS011;34102;47.716;10.296;2022-07-09T08:36:29;5.65;;;0.70;;
48285;SDS011;34102;47.716;10.296;2022-07-09T08:38:55;4.38;;;0.95;;
48285;SDS011;34102;47.716;10.296;2022-07-09T08:41:20;2.70;;;0.70;;
48285;SDS011;34102;47.716;10.296;2022-07-09T08:43:50;4.65;;;0.95;;
48285;SDS011;34102;47.716;10.296;2022-07-09T08:46:16;3.13;;;0.80;;
48285;SDS011;34102;47.716;10.296;2022-07-09T08:48:42;5.85;;;0.70;;
48285;SDS011;34102;47.716;10.296;2022-07-09T08:51:08;3.42;;;0.45;;
48285;SDS011;34102;47.716;10.296;2022-07-09T08:53:34;4.07;;;0.82;;
48285;SDS011;34102;47.716;10.296;2022-07-09T08:55:59;3.70;;;1.03;;
48285;SDS011;34102;47.716;10.296;2022-07-09T08:58:24;2.35;;;0.63;;
48285;SDS011;34102;47.716;10.296;2022-07-09T09:00:50;3.72;;;0.77;;
48285;SDS011;34102;47.716;10.296;2022-07-09T09:03:16;5.22;;;0.98;;
48285;SDS011;34102;47.716;10.296;2022-07-09T09:05:42;2.20;;;0.85;;
48285;SDS011;34102;47.716;10.296;2022-07-09T09:08:17;3.33;;;1.17;;
48285;SDS011;34102;47.716;10.296;2022-07-09T09:10:44;4.70;;;0.95;;
48285;SDS011;34102;47.716;10.296;2022-07-09T09:13:13;5.10;;;0.70;;
48285;SDS011;34102;47.716;10.296;2022-07-09T09:15:38;4.82;;;0.77;;
48285;SDS011;34102;47.716;10.296;2022-07-09T09:18:03;4.17;;;0.93;;
48285;SDS011;34102;47.716;10.296;2022-07-09T09:20:29;3.50;;;0.77;;
48285;SDS011;34102;47.716;10.296;2022-07-09T09:22:54;6.35;;;0.60;;
48285;SDS011;34102;47.716;10.296;2022-07-09T09:25:25;4.10;;;0.93;;
48285;SDS011;34102;47.716;10.296;2022-07-09T09:27:53;4.72;;;0.98;;
48285;SDS011;34102;47.716;10.296;2022-07-09T09:30:18;4.82;;;1.10;;
48285;SDS011;34102;47.716;10.296;2022-07-09T09:32:44;3.08;;;0.40;;
48285;SDS011;34102;47.716;10.296;2022-07-09T09:35:09;2.08;;;0.82;;
48285;SDS011;34102;47.716;10.296;2022-07-09T09:37:35;2.78;;;0.80;;
48285;SDS011;34102;47.716;10.296;2022-07-09T09:40:07;6.22;;;0.85;;
48285;SDS011;34102;47.716;10.296;2022-07-09T09:42:33;2.85;;;1.08;;
48285;SDS011;34102;47.716;10.296;2022-07-09T09:45:00;5.05;;;0.98;;
48285;SDS011;34102;47.716;10.296;2022-07-09T09:47:26;2.72;;;0.60;;
48285;SDS011;34102;47.716;10.296;2022-07-09T09:49:52;3.83;;;0.90;;
48285;SDS011;34102;47.716;10.296;2022-07-09T09:52:19;3.40;;;0.70;;
48285;SDS011;34102;47.716;10.296;2022-07-09T09:54:44;6.07;;;1.08;;
48285;SDS011;34102;47.716;10.296;2022-07-09T09:57:12;3.20;;;0.80;;
48285;SDS011;34102;47.716;10.296;2022-07-09T09:59:41;3.28;;;0.77;;
48285;SDS011;34102;47.716;10.296;2022-07-09T10:02:07;3.88;;;0.75;;
48285;SDS011;34102;47.716;10.296;2022-07-09T10:04:35;1.75;;;0.75;;
48285;SDS011;34102;47.716;10.296;2022-07-09T10:07:00;3.13;;;0.80;;
48285;SDS011;34102;47.716;10.296;2022-07-09T10:09:26;4.10;;;0.88;;
48285;SDS011;34102;47.716;10.296;2022-07-09T10:11:51;3.42;;;0.60;;
48285;SDS011;34102;47.716;10.296;2022-07-09T10:16:48;3.72;;;0.95;;
48285;SDS011;34102;47.716;10.296;2022-07-09T10:19:27;1.48;;;0.55;;
48285;SDS011;34102;47.716;10.296;2022-07-09T10:21:53;1.70;;;0.35;;
48285;SDS011;34102;47.716;10.296;2022-07-09T10:26:50;2.08;;;0.60;;
48285;SDS011;34102;47.716;10.296;2022-07-09T10:31:45;2.85;;;0.63;;
48285;SDS011;34102;47.716;10.296;2022-07-09T10:34:10;2.15;;;0.68;;
48285;SDS011;34102;47.716;10.296;2022-07-09T10:36:55;4.13;;;1.13;;
48285;SDS011;34102;47.716;10.296;2022-07-09T10:39:20;5.68;;;1.65;;
48285;SDS011;34102;47.716;10.296;2022-07-09T10:41:45;1.40;;;0.80;;
48285;SDS011;34102;47.716;10.296;2022-07-09T10:44:11;3.67;;;1.00;;
48285;SDS011;34102;47.716;10.296;2022-07-09T10:46:36;3.13;;;0.90;;
48285;SDS011;34102;47.716;10.296;2022-07-09T10:49:02;4.20;;;0.77;;
48285;SDS011;34102;47.716;10.296;2022-07-09T10:51:27;2.25;;;0.85;;
48285;SDS011;34102;47.716;10.296;2022-07-09T10:53:52;6.73;;;0.80;;
48285;SDS011;34102;47.716;10.296;2022-07-09T10:56:18;2.10;;;0.70;;
48285;SDS011;34102;47.716;10.296;2022-07-09T10:58:45;2.92;;;0.80;;
48285;SDS011;34102;47.716;10.296;2022-07-09T11:01:10;2.08;;;0.40;;
48285;SDS011;34102;47.716;10.296;2022-07-09T11:03:43;2.10;;;0.50;;
48285;SDS011;34102;47.716;10.296;2022-07-09T11:06:13;2.00;;;0.43;;
48285;SDS011;34102;47.716;10.296;2022-07-09T11:08:38;2.77;;;0.97;;
48285;SDS011;34102;47.716;10.296;2022-07-09T11:11:03;3.00;;;0.50;;
48285;SDS011;34102;47.716;10.296;2022-07-09T11:13:28;1.80;;;0.50;;
48285;SDS011;34102;47.716;10.296;2022-07-09T11:16:00;0.80;;;0.40;;
48285;SDS011;34102;47.716;10.296;2022-07-09T11:18:26;1.73;;;0.40;;
48285;SDS011;34102;47.716;10.296;2022-07-09T11:20:52;1.75;;;0.50;;
48285;SDS011;34102;47.716;10.296;2022-07-09T11:23:17;2.20;;;0.50;;
48285;SDS011;34102;47.716;10.296;2022-07-09T11:25:43;1.87;;;0.40;;
48285;SDS011;34102;47.716;10.296;2022-07-09T11:28:08;1.02;;;0.40;;
48285;SDS011;34102;47.716;10.296;2022-07-09T11:30:34;1.58;;;0.38;;
48285;SDS011;34102;47.716;10.296;2022-07-09T11:33:01;0.95;;;0.20;;
48285;SDS011;34102;47.716;10.296;2022-07-09T11:35:27;2.22;;;0.30;;
48285;SDS011;34102;47.716;10.296;2022-07-09T11:37:53;0.98;;;0.20;;
48285;SDS011;34102;47.716;10.296;2022-07-09T11:40:19;3.55;;;0.50;;
48285;SDS011;34102;47.716;10.296;2022-07-09T11:42:44;3.40;;;0.35;;
48285;SDS011;34102;47.716;10.296;2022-07-09T11:45:10;2.50;;;0.40;;
48285;SDS011;34102;47.716;10.296;2022-07-09T11:47:36;1.60;;;0.30;;
48285;SDS011;34102;47.716;10.296;2022-07-09T11:50:10;3.17;;;0.20;;
48285;SDS011;34102;47.716;10.296;2022-07-09T11:52:35;1.30;;;0.20;;
48285;SDS011;34102;47.716;10.296;2022-07-09T11:57:27;1.33;;;0.30;;
48285;SDS011;34102;47.716;10.296;2022-07-09T11:59:52;0.38;;;0.10;;
48285;SDS011;34102;47.716;10.296;2022-07-09T12:02:28;2.55;;;0.20;;
48285;SDS011;34102;47.716;10.296;2022-07-09T12:04:54;2.58;;;0.90;;
48285;SDS011;34102;47.716;10.296;2022-07-09T12:07:19;1.00;;;0.40;;
48285;SDS011;34102;47.716;10.296;2022-07-09T12:09:44;1.60;;;0.30;;
48285;SDS011;34102;47.716;10.296;2022-07-09T12:12:10;0.65;;;0.20;;
48285;SDS011;34102;47.716;10.296;2022-07-09T12:14:35;1.30;;;0.30;;
48285;SDS011;34102;47.716;10.296;2022-07-09T12:17:00;2.30;;;0.43;;
48285;SDS011;34102;47.716;10.296;2022-07-09T12:19:29;1.88;;;0.47;;
48285;SDS011;34102;47.716;10.296;2022-07-09T12:21:54;2.28;;;0.38;;
48285;SDS011;34102;47.716;10.296;2022-07-09T12:24:20;3.58;;;0.57;;
48285;SDS011;34102;47.716;10.296;2022-07-09T12:26:45;1.43;;;0.40;;
48285;SDS011;34102;47.716;10.296;2022-07-09T12:29:10;2.30;;;0.30;;
48285;SDS011;34102;47.716;10.296;2022-07-09T12:31:35;1.45;;;0.32;;
48285;SDS011;34102;47.716;10.296;2022-07-09T12:34:04;1.10;;;0.10;;
48285;SDS011;34102;47.716;10.296;2022-07-09T12:36:30;0.52;;;0.25;;
48285;SDS011;34102;47.716;10.296;2022-07-09T12:38:58;1.95;;;0.20;;
48285;SDS011;34102;47.716;10.296;2022-07-09T12:41:23;1.97;;;0.83;;
48285;SDS011;34102;47.716;10.296;2022-07-09T12:43:48;1.55;;;0.57;;
48285;SDS011;34102;47.716;10.296;2022-07-09T12:46:14;5.97;;;0.90;;
48285;SDS011;34102;47.716;10.296;2022-07-09T12:48:39;0.80;;;0.30;;
48285;SDS011;34102;47.716;10.296;2022-07-09T12:51:04;0.93;;;0.40;;
48285;SDS011;34102;47.716;10.296;2022-07-09T12:53:30;2.85;;;0.40;;
48285;SDS011;34102;47.716;10.296;2022-07-09T12:55:55;0.97;;;0.20;;
48285;SDS011;34102;47.716;10.296;2022-07-09T12:58:20;1.63;;;0.40;;
48285;SDS011;34102;47.716;10.296;2022-07-09T13:00:45;0.95;;;0.20;;
48285;SDS011;34102;47.716;10.296;2022-07-09T13:03:11;2.13;;;0.30;;
48285;SDS011;34102;47.716;10.296;2022-07-09T13:05:36;1.30;;;0.20;;
48285;SDS011;34102;47.716;10.296;2022-07-09T13:08:01;1.33;;;0.30;;
48285;SDS011;34102;47.716;10.296;2022-07-09T13:10:27;2.60;;;0.60;;
48285;SDS011;34102;47.716;10.296;2022-07-09T13:12:52;1.55;;;0.13;;
48285;SDS011;34102;47.716;10.296;2022-07-09T13:15:17;1.27;;;0.30;;
48285;SDS011;34102;47.716;10.296;2022-07-09T13:17:49;2.63;;;0.57;;
48285;SDS011;34102;47.716;10.296;2022-07-09T13:20:14;0.98;;;0.20;;
48285;SDS011;34102;47.716;10.296;2022-07-09T13:22:39;2.72;;;0.38;;
48285;SDS011;34102;47.716;10.296;2022-07-09T13:25:05;1.08;;;0.30;;
48285;SDS011;34102;47.716;10.296;2022-07-09T13:27:30;1.27;;;0.20;;
48285;SDS011;34102;47.716;10.296;2022-07-09T13:29:56;1.77;;;0.30;;
48285;SDS011;34102;47.716;10.296;2022-07-09T13:32:21;2.40;;;0.30;;
48285;SDS011;34102;47.716;10.296;2022-07-09T13:34:48;1.63;;;0.20;;
48285;SDS011;34102;47.716;10.296;2022-07-09T13:37:13;0.95;;;0.20;;
48285;SDS011;34102;47.716;10.296;2022-07-09T13:39:38;2.30;;;0.20;;
48285;SDS011;34102;47.716;10.296;2022-07-09T13:42:04;2.78;;;0.22;;
48285;SDS011;34102;47.716;10.296;2022-07-09T13:44:29;1.52;;;0.32;;
48285;SDS011;34102;47.716;10.296;2022-07-09T13:46:54;1.38;;;0.20;;
48285;SDS011;34102;47.716;10.296;2022-07-09T13:49:20;0.98;;;0.30;;
48285;SDS011;34102;47.716;10.296;2022-07-09T13:51:45;1.60;;;0.50;;
48285;SDS011;34102;47.716;10.296;2022-07-09T13:54:10;1.75;;;0.35;;
48285;SDS011;34102;47.716;10.296;2022-07-09T13:56:35;1.95;;;0.57;;
48285;SDS011;34102;47.716;10.296;2022-07-09T13:59:01;2.00;;;0.30;;
48285;SDS011;34102;47.716;10.296;2022-07-09T14:01:26;1.00;;;0.20;;
48285;SDS011;34102;47.716;10.296;2022-07-09T14:03:51;2.15;;;0.20;;
48285;SDS011;34102;47.716;10.296;2022-07-09T14:06:17;2.17;;;0.30;;
48285;SDS011;34102;47.716;10.296;2022-07-09T14:08:42;0.77;;;0.20;;
48285;SDS011;34102;47.716;10.296;2022-07-09T14:11:07;0.60;;;0.20;;
48285;SDS011;34102;47.716;10.296;2022-07-09T14:13:32;0.40;;;0.17;;
48285;SDS011;34102;47.716;10.296;2022-07-09T14:15:58;1.88;;;0.22;;
48285;SDS011;34102;47.716;10.296;2022-07-09T14:18:25;1.92;;;0.55;;
48285;SDS011;34102;47.716;10.296;2022-07-09T14:20:50;1.05;;;0.30;;
48285;SDS011;34102;47.716;10.296;2022-07-09T14:23:15;0.77;;;0.32;;
48285;SDS011;34102;47.716;10.296;2022-07-09T14:25:41;3.03;;;0.35;;
48285;SDS011;34102;47.716;10.296;2022-07-09T14:28:07;1.85;;;0.25;;
48285;SDS011;34102;47.716;10.296;2022-07-09T14:30:32;2.63;;;0.43;;
48285;SDS011;34102;47.716;10.296;2022-07-09T14:32:58;1.60;;;0.27;;
48285;SDS011;34102;47.716;10.296;2022-07-09T14:35:24;0.93;;;0.20;;